Monrovia, CA

2:39 PM PDT on March 29, 2015 (GMT -0700)
Route 666 Monrovia | | Change Station
CLOSE
Current Station
Personal Weather Station
Location: Monrovia, CA
Elevation: 462 ft
Nearby Weather Stations

Elev 462 ft 34.14 °N, 118.01 °W | Updated 12 seconds ago

Clear
Clear
86.7 °F
Feels Like 83 °F
N
5.0
Wind Variable Wind from SSW
Gusts 5.0 mph

Today
High -- | Low -- °F
--% Chance of Precip.
Yesterday
High -- | Low -- °F
Precip. -- in
6:43 AM 7:10 PM
Waxing Gibbous, 74% visible
Pressure 30.00 in
Visibility 8.0 miles
Clouds Clear
Heat Index 83 °F
Dew Point 24 °F
Humidity 10%
Rainfall 0.00 in
Snow Depth Not available.
UV 9 out of 12
Pollen 8.80 out of 12
Air Quality Not available.
Flu Activity Not available.
METAR KCQT 292047Z AUTO 00000KT 8SM CLR 24/14 A3000 RMK AO2 SLP158 T02440139 58015

More Conditions Fewer Conditions

Pressure 30.00 in
Visibility 8.0 miles
Clouds Clear
Heat Index 83 °F
Dew Point 24 °F
Humidity 10%
Rainfall 0.00 in
Snow Depth Not available.
UV 9 out of 12
Pollen 8.80 out of 12
Air Quality Not available.
Flu Activity Not available.
METAR KCQT 292047Z AUTO 00000KT 8SM CLR 24/14 A3000 RMK AO2 SLP158 T02440139 58015

More Conditions Fewer Conditions

10-Day Weather Forecast

Almanac

Astronomy

Mar. 29, 2015 Rise Set
Actual Time
Civil Twilight
Nautical Twilight
Astronomical Twilight
Moon
Length of Visible Light
Length of Day
Tomorrow will be .
, % of the Moon is Illuminated

Today's Extremes

State Highs State Lows

Community

WunderPhotos

Upload Photos

1,809,355 photos uploaded!

WunderBlogs® & News

Nearby

Air Quality

  Air Quality AQ Index Pollutant
Not available.

Snow Depth

Station Depth Elevation

Earthquake Activity

City Distance Mag. Time & Date
Minimum magnitude displayed is 2.5.

Coastal Water Temperatures

Place Temperature

Stations

Nearby Weather Stations

Station Location Temp. Windchill Dew Point Humidity Wind Precip. Elev Updated Type